createdAt,value
2018-06-05T00:01:00.113Z,5.80
2018-06-05T00:05:54.538Z,5.50
2018-06-05T00:10:49.266Z,8.13
2018-06-05T00:15:43.791Z,4.63
2018-06-05T00:20:38.560Z,4.57
2018-06-05T00:25:32.984Z,5.73
2018-06-05T00:30:27.540Z,5.07
2018-06-05T00:35:21.989Z,6.23
2018-06-05T00:40:16.706Z,6.70
2018-06-05T00:45:11.112Z,3.67
2018-06-05T00:50:05.612Z,6.57
2018-06-05T00:55:00.050Z,3.67
2018-06-05T00:59:54.628Z,5.07
2018-06-05T01:04:49.248Z,6.03
2018-06-05T01:09:43.886Z,3.80
2018-06-05T01:14:38.628Z,4.43
2018-06-05T01:19:33.056Z,5.53
2018-06-05T01:24:27.544Z,5.00
2018-06-05T01:29:21.978Z,6.03
2018-06-05T01:34:16.490Z,4.47
2018-06-05T01:39:10.985Z,7.13
2018-06-05T01:44:05.648Z,6.63
2018-06-05T01:48:59.812Z,6.23
2018-06-05T01:53:54.249Z,5.43
2018-06-05T01:58:48.670Z,5.10
2018-06-05T02:03:43.321Z,5.87
2018-06-05T02:08:37.800Z,6.97
2018-06-05T02:13:32.216Z,5.50
2018-06-05T02:18:26.802Z,5.40
2018-06-05T02:23:21.353Z,5.93
2018-06-05T02:28:15.807Z,5.87
2018-06-05T02:33:10.391Z,6.63
2018-06-05T02:38:04.942Z,6.50
2018-06-05T02:42:59.759Z,7.17
2018-06-05T02:47:54.260Z,6.80
2018-06-05T02:52:48.779Z,6.53
2018-06-05T02:57:43.553Z,7.97
2018-06-05T03:02:37.981Z,7.50
2018-06-05T03:07:32.588Z,7.97
2018-06-05T03:12:27.020Z,7.73
2018-06-05T03:17:21.454Z,8.67
2018-06-05T03:22:15.870Z,6.40
2018-06-05T03:27:10.368Z,6.73
2018-06-05T03:32:04.867Z,5.67
2018-06-05T03:36:59.384Z,6.00
2018-06-05T03:41:53.828Z,12.23
2018-06-05T03:46:48.256Z,5.93
2018-06-05T03:51:42.665Z,6.87
2018-06-05T03:56:37.242Z,8.03
2018-06-05T04:01:31.708Z,5.70
2018-06-05T04:06:26.246Z,6.90
2018-06-05T04:11:20.684Z,5.13
2018-06-05T04:16:15.304Z,7.23
2018-06-05T04:21:09.712Z,8.77
2018-06-05T04:26:04.218Z,4.33
2018-06-05T04:30:59.157Z,6.07
2018-06-05T04:35:53.586Z,4.85
2018-06-05T04:40:48.084Z,5.20
2018-06-05T04:45:42.660Z,5.03
2018-06-05T04:50:37.789Z,6.37
2018-06-05T04:55:32.324Z,7.20
2018-06-05T05:00:26.800Z,4.47
2018-06-05T05:05:21.220Z,6.50
2018-06-05T05:10:15.927Z,5.45
2018-06-05T05:15:10.401Z,5.33
2018-06-05T05:20:05.099Z,4.58
2018-06-05T05:24:59.634Z,7.15
2018-06-05T05:29:54.317Z,5.20
2018-06-05T05:34:48.692Z,5.33
2018-06-05T05:39:43.486Z,5.28
2018-06-05T05:44:37.932Z,4.90
2018-06-05T05:49:32.348Z,5.10
2018-06-05T05:54:26.764Z,5.30
2018-06-05T05:59:21.177Z,4.90
2018-06-05T06:04:15.632Z,4.55
2018-06-05T06:09:10.041Z,6.28
2018-06-05T06:14:04.552Z,4.42
2018-06-05T06:18:59.000Z,6.90
2018-06-05T06:23:53.159Z,5.85
2018-06-05T06:28:47.864Z,5.15
2018-06-05T06:33:42.357Z,6.33
2018-06-05T06:38:36.796Z,5.70
2018-06-05T06:43:31.825Z,4.67
2018-06-05T06:48:26.912Z,6.28
2018-06-05T06:53:21.561Z,4.47
2018-06-05T06:58:16.008Z,9.13
2018-06-05T07:03:12.682Z,8.58
2018-06-05T07:08:07.530Z,7.58
2018-06-05T07:13:02.058Z,8.30
2018-06-05T07:17:56.520Z,7.20
2018-06-05T07:22:50.932Z,7.03
2018-06-05T07:27:45.424Z,5.65
2018-06-05T07:32:40.010Z,6.90
2018-06-05T07:37:34.956Z,9.05
2018-06-05T07:42:29.392Z,10.38
2018-06-05T07:47:24.036Z,10.00
2018-06-05T07:52:18.472Z,7.17
2018-06-05T07:57:13.112Z,7.35
2018-06-05T08:02:07.560Z,9.43
2018-06-05T08:07:02.384Z,10.58
2018-06-05T08:11:57.015Z,8.50
2018-06-05T08:16:51.853Z,8.65
2018-06-05T08:21:46.252Z,8.48
2018-06-05T08:26:51.916Z,7.30
2018-06-05T08:31:48.996Z,6.45
2018-06-05T08:36:43.296Z,6.20
2018-06-05T08:41:38.111Z,6.58
2018-06-05T08:46:33.017Z,7.22
2018-06-05T08:51:28.045Z,8.45
2018-06-05T08:56:22.502Z,6.05
2018-06-05T09:01:17.775Z,6.40
2018-06-05T09:06:12.305Z,9.85
2018-06-05T09:11:06.899Z,6.75
2018-06-05T09:16:01.908Z,7.03
2018-06-05T09:20:56.431Z,6.75
2018-06-05T09:25:51.460Z,10.32
2018-06-05T09:30:46.099Z,7.08
2018-06-05T09:35:45.518Z,7.50
2018-06-05T09:40:40.997Z,7.90
2018-06-05T09:45:37.211Z,8.88
2018-06-05T09:50:34.048Z,6.85
2018-06-05T09:55:29.921Z,11.48
2018-06-05T10:00:31.026Z,8.33
2018-06-05T10:05:26.581Z,8.68
2018-06-05T10:10:21.996Z,7.92
2018-06-05T10:15:17.478Z,10.23
2018-06-05T10:20:14.914Z,8.30
2018-06-05T10:25:15.565Z,6.97
2018-06-05T10:30:12.159Z,9.35
2018-06-05T10:35:07.427Z,6.40
2018-06-05T10:40:02.916Z,6.08
2018-06-05T10:44:58.219Z,6.95
2018-06-05T10:49:53.698Z,6.58
2018-06-05T10:54:50.979Z,6.95
2018-06-05T10:59:46.202Z,6.30
2018-06-05T11:04:43.162Z,5.55
2018-06-05T11:09:38.714Z,6.70
2018-06-05T11:14:33.559Z,4.30
2018-06-05T11:19:29.456Z,4.95
2018-06-05T11:24:24.344Z,4.67
2018-06-05T11:29:20.518Z,4.00
2018-06-05T11:34:15.402Z,5.05
2018-06-05T11:39:10.686Z,6.50
2018-06-05T11:44:14.466Z,4.40
2018-06-05T11:49:09.763Z,3.20
2018-06-05T11:54:04.959Z,4.95
2018-06-05T11:58:59.701Z,6.72
2018-06-05T12:03:55.454Z,4.03
2018-06-05T12:08:50.204Z,4.55
2018-06-05T12:13:46.468Z,2.87
2018-06-05T12:18:42.123Z,5.22
2018-06-05T12:23:37.794Z,2.90
2018-06-05T12:28:32.625Z,2.95
2018-06-05T12:33:27.408Z,4.42
2018-06-05T12:38:22.347Z,6.90
2018-06-05T12:43:17.143Z,4.12
2018-06-05T12:48:15.697Z,3.72
2018-06-05T12:53:12.514Z,3.72
2018-06-05T12:58:07.623Z,4.70
2018-06-05T13:03:02.699Z,5.53
2018-06-05T13:07:58.578Z,4.00
2018-06-05T13:12:56.491Z,5.25
2018-06-05T13:17:51.740Z,5.10
2018-06-05T13:22:46.759Z,5.62
2018-06-05T13:27:41.446Z,4.78
2018-06-05T13:32:37.440Z,3.87
2018-06-05T13:37:32.752Z,5.45
2018-06-05T13:42:27.681Z,7.87
2018-06-05T13:47:22.312Z,7.12
2018-06-05T13:52:16.956Z,3.90
2018-06-05T13:57:11.391Z,4.65
2018-06-05T14:02:07.262Z,4.15
2018-06-05T14:07:01.732Z,7.50
2018-06-05T14:11:56.164Z,5.35
2018-06-05T14:16:58.053Z,4.15
2018-06-05T14:21:52.650Z,7.08
2018-06-05T14:26:47.310Z,6.55
2018-06-05T14:31:41.752Z,5.53
2018-06-05T14:36:36.281Z,5.00
2018-06-05T14:41:30.757Z,4.47
2018-06-05T14:46:25.198Z,4.40
2018-06-05T14:51:19.632Z,4.62
2018-06-05T14:56:14.049Z,5.92
2018-06-05T15:01:08.509Z,5.08
2018-06-05T15:06:03.057Z,4.90
2018-06-05T15:10:57.517Z,5.97
2018-06-05T15:15:51.988Z,4.35
2018-06-05T15:20:46.439Z,6.60
2018-06-05T15:25:43.381Z,4.08
2018-06-05T15:30:37.877Z,3.75
2018-06-05T15:35:32.319Z,5.35
2018-06-05T15:40:27.092Z,4.62
2018-06-05T15:45:21.773Z,5.83
2018-06-05T15:50:16.187Z,4.08
2018-06-05T15:55:10.745Z,4.22
2018-06-05T16:00:06.009Z,4.83
2018-06-05T16:05:01.541Z,4.60
2018-06-05T16:09:55.972Z,4.75
2018-06-05T16:14:50.376Z,5.30
2018-06-05T16:19:44.865Z,3.95
2018-06-05T16:24:39.266Z,4.83
2018-06-05T16:29:34.075Z,4.55
2018-06-05T16:34:28.498Z,4.58
2018-06-05T16:39:22.933Z,4.90
2018-06-05T16:44:17.572Z,4.72
2018-06-05T16:49:11.972Z,5.08
2018-06-05T16:54:06.792Z,4.95
2018-06-05T16:59:01.281Z,4.65
2018-06-05T17:03:55.423Z,4.47
2018-06-05T17:08:49.965Z,6.47
2018-06-05T17:13:44.677Z,5.12
2018-06-05T17:18:40.685Z,5.03
2018-06-05T17:23:35.296Z,4.60
2018-06-05T17:28:30.310Z,5.03
2018-06-05T17:33:24.864Z,5.75
2018-06-05T17:38:19.398Z,5.37
2018-06-05T17:43:13.892Z,5.28
2018-06-05T17:48:08.320Z,7.45
2018-06-05T17:53:02.978Z,7.12
2018-06-05T17:57:57.657Z,7.30
2018-06-05T18:02:52.298Z,8.30
2018-06-05T18:07:46.862Z,5.87
2018-06-05T18:12:41.328Z,5.10
2018-06-05T18:17:35.853Z,5.78
2018-06-05T18:22:30.272Z,6.75
2018-06-05T18:27:24.776Z,7.87
2018-06-05T18:32:20.333Z,7.15
2018-06-05T18:37:15.653Z,6.22
2018-06-05T18:42:10.408Z,6.42
2018-06-05T18:47:05.063Z,6.53
2018-06-05T18:51:59.785Z,7.87
2018-06-05T18:56:54.678Z,7.78
2018-06-05T19:01:49.232Z,8.08
2018-06-05T19:06:43.764Z,10.78
2018-06-05T19:11:38.292Z,8.33
2018-06-05T19:16:32.740Z,10.00
2018-06-05T19:21:27.783Z,6.87
2018-06-05T19:26:22.402Z,6.83
2018-06-05T19:31:16.860Z,6.80
2018-06-05T19:36:11.317Z,7.85
2018-06-05T19:41:05.859Z,7.03
2018-06-05T19:46:00.301Z,9.13
2018-06-05T19:50:54.824Z,9.88
2018-06-05T19:55:49.368Z,6.78
2018-06-05T20:00:43.833Z,7.03
2018-06-05T20:05:38.525Z,7.75
2018-06-05T20:10:32.961Z,7.80
2018-06-05T20:15:27.461Z,7.00
2018-06-05T20:20:22.177Z,8.10
2018-06-05T20:25:16.708Z,8.50
2018-06-05T20:30:11.191Z,6.83
2018-06-05T20:35:05.720Z,6.87
2018-06-05T20:40:00.174Z,7.42
2018-06-05T20:44:54.766Z,7.35
2018-06-05T20:49:49.215Z,6.30
2018-06-05T20:54:47.845Z,7.08
2018-06-05T20:59:42.758Z,7.25
2018-06-05T21:04:37.373Z,8.08
2018-06-05T21:09:31.821Z,7.72
2018-06-05T21:14:26.399Z,6.80
2018-06-05T21:19:20.894Z,6.95
2018-06-05T21:24:15.391Z,7.75
2018-06-05T21:29:09.889Z,8.15
2018-06-05T21:34:04.444Z,7.20
2018-06-05T21:38:58.871Z,8.37
2018-06-05T21:43:53.059Z,9.00
2018-06-05T21:48:48.537Z,8.47
2018-06-05T21:53:43.027Z,8.10
2018-06-05T21:58:37.212Z,9.03
2018-06-05T22:03:31.748Z,8.03
2018-06-05T22:08:26.228Z,7.85
2018-06-05T22:13:20.633Z,8.70
2018-06-05T22:18:15.054Z,7.73
2018-06-05T22:23:09.591Z,8.13
2018-06-05T22:28:04.108Z,10.80
2018-06-05T22:32:58.620Z,9.40
2018-06-05T22:37:53.995Z,10.70
2018-06-05T22:42:48.445Z,9.47
2018-06-05T22:47:42.880Z,9.27
2018-06-05T22:52:37.430Z,9.37
2018-06-05T22:57:31.897Z,8.80
2018-06-05T23:02:26.489Z,10.07
2018-06-05T23:07:21.171Z,9.73
2018-06-05T23:12:15.597Z,9.67
2018-06-05T23:17:10.108Z,9.70
2018-06-05T23:22:07.771Z,10.00
2018-06-05T23:27:02.409Z,10.93
2018-06-05T23:31:56.817Z,11.50
2018-06-05T23:36:51.305Z,9.40
2018-06-05T23:41:46.171Z,12.80
2018-06-05T23:46:40.817Z,14.40
2018-06-05T23:51:35.353Z,9.67
2018-06-05T23:56:29.968Z,10.40
